sensor_id;sensor_type;location;lat;lon;timestamp;P1;durP1;ratioP1;P2;durP2;ratioP2
17993;SDS011;9122;48.406;9.984;2022-08-01T00:01:37;1.90;;;1.80;;
17993;SDS011;9122;48.406;9.984;2022-08-01T00:04:22;2.45;;;2.25;;
17993;SDS011;9122;48.406;9.984;2022-08-01T00:07:07;2.42;;;2.30;;
17993;SDS011;9122;48.406;9.984;2022-08-01T00:09:51;2.45;;;2.35;;
17993;SDS011;9122;48.406;9.984;2022-08-01T00:12:36;2.40;;;2.25;;
17993;SDS011;9122;48.406;9.984;2022-08-01T00:15:20;2.78;;;2.20;;
17993;SDS011;9122;48.406;9.984;2022-08-01T00:18:05;2.10;;;1.90;;
17993;SDS011;9122;48.406;9.984;2022-08-01T00:20:50;2.95;;;2.20;;
17993;SDS011;9122;48.406;9.984;2022-08-01T00:23:34;2.20;;;2.08;;
17993;SDS011;9122;48.406;9.984;2022-08-01T00:26:19;2.03;;;1.92;;
17993;SDS011;9122;48.406;9.984;2022-08-01T00:29:04;1.98;;;1.88;;
17993;SDS011;9122;48.406;9.984;2022-08-01T00:31:49;2.38;;;2.28;;
17993;SDS011;9122;48.406;9.984;2022-08-01T00:34:33;3.42;;;2.28;;
17993;SDS011;9122;48.406;9.984;2022-08-01T00:37:18;2.50;;;2.40;;
17993;SDS011;9122;48.406;9.984;2022-08-01T00:40:03;2.40;;;2.20;;
17993;SDS011;9122;48.406;9.984;2022-08-01T00:42:48;3.08;;;2.67;;
17993;SDS011;9122;48.406;9.984;2022-08-01T00:45:32;1.95;;;1.85;;
17993;SDS011;9122;48.406;9.984;2022-08-01T00:48:17;2.20;;;2.08;;
17993;SDS011;9122;48.406;9.984;2022-08-01T00:51:03;1.92;;;1.83;;
17993;SDS011;9122;48.406;9.984;2022-08-01T00:53:48;2.10;;;2.00;;
17993;SDS011;9122;48.406;9.984;2022-08-01T00:56:34;1.90;;;1.80;;
17993;SDS011;9122;48.406;9.984;2022-08-01T00:59:19;2.47;;;2.25;;
17993;SDS011;9122;48.406;9.984;2022-08-01T01:02:05;2.58;;;2.38;;
17993;SDS011;9122;48.406;9.984;2022-08-01T01:04:50;2.50;;;2.35;;
17993;SDS011;9122;48.406;9.984;2022-08-01T01:07:43;3.40;;;2.20;;
17993;SDS011;9122;48.406;9.984;2022-08-01T01:10:42;2.55;;;2.20;;
17993;SDS011;9122;48.406;9.984;2022-08-01T01:13:42;2.30;;;2.20;;
17993;SDS011;9122;48.406;9.984;2022-08-01T01:16:29;2.30;;;2.10;;
17993;SDS011;9122;48.406;9.984;2022-08-01T01:19:16;2.38;;;2.05;;
17993;SDS011;9122;48.406;9.984;2022-08-01T01:25:32;1.88;;;1.77;;
17993;SDS011;9122;48.406;9.984;2022-08-01T01:28:40;2.40;;;2.30;;
17993;SDS011;9122;48.406;9.984;2022-08-01T01:32:22;4.50;;;2.00;;
17993;SDS011;9122;48.406;9.984;2022-08-01T01:34:48;2.22;;;2.05;;
17993;SDS011;9122;48.406;9.984;2022-08-01T01:37:35;1.90;;;1.80;;
17993;SDS011;9122;48.406;9.984;2022-08-01T01:40:23;4.28;;;2.45;;
17993;SDS011;9122;48.406;9.984;2022-08-01T01:43:09;2.25;;;2.05;;
17993;SDS011;9122;48.406;9.984;2022-08-01T01:45:55;2.20;;;2.05;;
17993;SDS011;9122;48.406;9.984;2022-08-01T01:48:40;2.42;;;2.28;;
17993;SDS011;9122;48.406;9.984;2022-08-01T01:51:28;2.42;;;2.33;;
17993;SDS011;9122;48.406;9.984;2022-08-01T01:54:14;2.25;;;2.15;;
17993;SDS011;9122;48.406;9.984;2022-08-01T01:56:59;2.38;;;2.17;;
17993;SDS011;9122;48.406;9.984;2022-08-01T01:59:45;2.65;;;2.22;;
17993;SDS011;9122;48.406;9.984;2022-08-01T02:02:31;4.97;;;2.30;;
17993;SDS011;9122;48.406;9.984;2022-08-01T02:05:20;2.78;;;2.58;;
17993;SDS011;9122;48.406;9.984;2022-08-01T02:08:06;2.17;;;2.08;;
17993;SDS011;9122;48.406;9.984;2022-08-01T02:10:52;2.67;;;2.47;;
17993;SDS011;9122;48.406;9.984;2022-08-01T02:13:59;2.25;;;2.15;;
17993;SDS011;9122;48.406;9.984;2022-08-01T02:16:49;2.30;;;2.20;;
17993;SDS011;9122;48.406;9.984;2022-08-01T02:19:34;2.60;;;2.40;;
17993;SDS011;9122;48.406;9.984;2022-08-01T02:22:21;2.45;;;2.25;;
17993;SDS011;9122;48.406;9.984;2022-08-01T02:28:15;2.53;;;2.42;;
17993;SDS011;9122;48.406;9.984;2022-08-01T02:31:11;2.70;;;2.50;;
17993;SDS011;9122;48.406;9.984;2022-08-01T02:34:02;3.13;;;2.67;;
17993;SDS011;9122;48.406;9.984;2022-08-01T02:36:50;3.08;;;2.88;;
17993;SDS011;9122;48.406;9.984;2022-08-01T02:39:36;2.80;;;2.60;;
17993;SDS011;9122;48.406;9.984;2022-08-01T02:42:22;3.05;;;2.85;;
17993;SDS011;9122;48.406;9.984;2022-08-01T02:45:10;2.63;;;2.53;;
17993;SDS011;9122;48.406;9.984;2022-08-01T02:48:01;3.15;;;2.95;;
17993;SDS011;9122;48.406;9.984;2022-08-01T02:50:51;3.45;;;3.20;;
17993;SDS011;9122;48.406;9.984;2022-08-01T02:53:38;2.90;;;2.70;;
17993;SDS011;9122;48.406;9.984;2022-08-01T02:56:25;3.97;;;3.67;;
17993;SDS011;9122;48.406;9.984;2022-08-01T02:59:18;3.75;;;3.45;;
17993;SDS011;9122;48.406;9.984;2022-08-01T03:02:15;3.80;;;3.50;;
17993;SDS011;9122;48.406;9.984;2022-08-01T03:05:01;4.03;;;3.72;;
17993;SDS011;9122;48.406;9.984;2022-08-01T03:07:47;3.55;;;3.25;;
17993;SDS011;9122;48.406;9.984;2022-08-01T03:10:32;4.60;;;3.20;;
17993;SDS011;9122;48.406;9.984;2022-08-01T03:13:19;3.00;;;2.80;;
17993;SDS011;9122;48.406;9.984;2022-08-01T03:16:05;3.33;;;3.13;;
17993;SDS011;9122;48.406;9.984;2022-08-01T03:18:51;3.25;;;3.05;;
17993;SDS011;9122;48.406;9.984;2022-08-01T03:21:38;4.07;;;3.05;;
17993;SDS011;9122;48.406;9.984;2022-08-01T03:24:24;3.50;;;3.20;;
17993;SDS011;9122;48.406;9.984;2022-08-01T03:27:10;3.25;;;3.03;;
17993;SDS011;9122;48.406;9.984;2022-08-01T03:29:55;3.88;;;3.58;;
17993;SDS011;9122;48.406;9.984;2022-08-01T03:32:41;3.20;;;3.00;;
17993;SDS011;9122;48.406;9.984;2022-08-01T03:35:28;3.30;;;3.10;;
17993;SDS011;9122;48.406;9.984;2022-08-01T03:38:17;3.30;;;3.10;;
17993;SDS011;9122;48.406;9.984;2022-08-01T03:41:13;3.38;;;3.17;;
17993;SDS011;9122;48.406;9.984;2022-08-01T03:44:03;5.90;;;3.40;;
17993;SDS011;9122;48.406;9.984;2022-08-01T03:47:01;4.45;;;3.13;;
17993;SDS011;9122;48.406;9.984;2022-08-01T03:49:48;3.78;;;3.28;;
17993;SDS011;9122;48.406;9.984;2022-08-01T03:52:35;3.50;;;3.22;;
17993;SDS011;9122;48.406;9.984;2022-08-01T03:55:23;3.38;;;3.13;;
17993;SDS011;9122;48.406;9.984;2022-08-01T03:58:09;3.88;;;3.28;;
17993;SDS011;9122;48.406;9.984;2022-08-01T04:00:55;3.40;;;3.20;;
17993;SDS011;9122;48.406;9.984;2022-08-01T04:03:40;3.75;;;3.45;;
17993;SDS011;9122;48.406;9.984;2022-08-01T04:06:25;3.65;;;3.35;;
17993;SDS011;9122;48.406;9.984;2022-08-01T04:09:10;3.40;;;3.10;;
17993;SDS011;9122;48.406;9.984;2022-08-01T04:11:55;3.40;;;3.13;;
17993;SDS011;9122;48.406;9.984;2022-08-01T04:14:40;3.13;;;2.80;;
17993;SDS011;9122;48.406;9.984;2022-08-01T04:17:24;5.32;;;3.88;;
17993;SDS011;9122;48.406;9.984;2022-08-01T04:20:09;3.10;;;2.90;;
17993;SDS011;9122;48.406;9.984;2022-08-01T04:22:54;3.30;;;3.10;;
17993;SDS011;9122;48.406;9.984;2022-08-01T04:25:39;3.10;;;2.85;;
17993;SDS011;9122;48.406;9.984;2022-08-01T04:28:26;3.92;;;3.55;;
17993;SDS011;9122;48.406;9.984;2022-08-01T04:31:12;4.65;;;3.72;;
17993;SDS011;9122;48.406;9.984;2022-08-01T04:33:59;3.50;;;3.28;;
17993;SDS011;9122;48.406;9.984;2022-08-01T04:36:47;3.72;;;3.35;;
17993;SDS011;9122;48.406;9.984;2022-08-01T04:39:33;4.35;;;3.47;;
17993;SDS011;9122;48.406;9.984;2022-08-01T04:42:20;4.70;;;4.30;;
17993;SDS011;9122;48.406;9.984;2022-08-01T04:45:06;4.32;;;3.58;;
17993;SDS011;9122;48.406;9.984;2022-08-01T04:47:52;3.58;;;3.28;;
17993;SDS011;9122;48.406;9.984;2022-08-01T04:50:36;3.80;;;3.33;;
17993;SDS011;9122;48.406;9.984;2022-08-01T04:53:21;4.05;;;3.60;;
17993;SDS011;9122;48.406;9.984;2022-08-01T04:56:06;3.85;;;3.42;;
17993;SDS011;9122;48.406;9.984;2022-08-01T04:58:50;4.53;;;4.13;;
17993;SDS011;9122;48.406;9.984;2022-08-01T05:01:55;4.40;;;3.25;;
17993;SDS011;9122;48.406;9.984;2022-08-01T05:04:39;4.43;;;4.13;;
17993;SDS011;9122;48.406;9.984;2022-08-01T05:07:24;3.17;;;2.97;;
17993;SDS011;9122;48.406;9.984;2022-08-01T05:10:09;3.63;;;3.42;;
17993;SDS011;9122;48.406;9.984;2022-08-01T05:12:53;3.90;;;3.60;;
17993;SDS011;9122;48.406;9.984;2022-08-01T05:15:38;4.05;;;3.83;;
17993;SDS011;9122;48.406;9.984;2022-08-01T05:18:23;3.67;;;3.38;;
17993;SDS011;9122;48.406;9.984;2022-08-01T05:21:07;3.60;;;3.30;;
17993;SDS011;9122;48.406;9.984;2022-08-01T05:23:51;4.22;;;3.83;;
17993;SDS011;9122;48.406;9.984;2022-08-01T05:26:36;3.35;;;3.05;;
17993;SDS011;9122;48.406;9.984;2022-08-01T05:29:21;3.97;;;2.95;;
17993;SDS011;9122;48.406;9.984;2022-08-01T05:32:05;5.30;;;3.85;;
17993;SDS011;9122;48.406;9.984;2022-08-01T05:34:50;4.07;;;3.78;;
17993;SDS011;9122;48.406;9.984;2022-08-01T05:37:34;4.50;;;4.20;;
17993;SDS011;9122;48.406;9.984;2022-08-01T05:40:19;4.75;;;4.25;;
17993;SDS011;9122;48.406;9.984;2022-08-01T05:43:04;5.55;;;5.10;;
17993;SDS011;9122;48.406;9.984;2022-08-01T05:45:48;5.15;;;4.75;;
17993;SDS011;9122;48.406;9.984;2022-08-01T05:48:32;5.25;;;4.15;;
17993;SDS011;9122;48.406;9.984;2022-08-01T05:51:17;5.43;;;4.40;;
17993;SDS011;9122;48.406;9.984;2022-08-01T05:54:02;5.18;;;3.80;;
17993;SDS011;9122;48.406;9.984;2022-08-01T05:56:46;19.00;;;7.43;;
17993;SDS011;9122;48.406;9.984;2022-08-01T05:59:31;25.63;;;7.72;;
17993;SDS011;9122;48.406;9.984;2022-08-01T06:02:16;8.32;;;4.07;;
17993;SDS011;9122;48.406;9.984;2022-08-01T06:05:00;4.55;;;3.83;;
17993;SDS011;9122;48.406;9.984;2022-08-01T06:07:45;6.07;;;3.35;;
17993;SDS011;9122;48.406;9.984;2022-08-01T06:10:30;4.10;;;3.80;;
17993;SDS011;9122;48.406;9.984;2022-08-01T06:13:14;3.25;;;2.95;;
17993;SDS011;9122;48.406;9.984;2022-08-01T06:15:59;3.72;;;3.40;;
17993;SDS011;9122;48.406;9.984;2022-08-01T06:18:44;3.95;;;3.50;;
17993;SDS011;9122;48.406;9.984;2022-08-01T06:21:28;3.20;;;2.97;;
17993;SDS011;9122;48.406;9.984;2022-08-01T06:24:13;4.65;;;3.83;;
17993;SDS011;9122;48.406;9.984;2022-08-01T06:26:58;9.80;;;4.45;;
17993;SDS011;9122;48.406;9.984;2022-08-01T06:29:42;6.90;;;4.05;;
17993;SDS011;9122;48.406;9.984;2022-08-01T06:32:27;5.15;;;3.38;;
17993;SDS011;9122;48.406;9.984;2022-08-01T06:35:13;5.28;;;3.33;;
17993;SDS011;9122;48.406;9.984;2022-08-01T06:37:58;3.20;;;2.90;;
17993;SDS011;9122;48.406;9.984;2022-08-01T06:40:43;3.42;;;3.10;;
17993;SDS011;9122;48.406;9.984;2022-08-01T06:43:29;4.03;;;3.30;;
17993;SDS011;9122;48.406;9.984;2022-08-01T06:46:15;2.92;;;2.72;;
17993;SDS011;9122;48.406;9.984;2022-08-01T06:48:59;2.55;;;2.40;;
17993;SDS011;9122;48.406;9.984;2022-08-01T06:51:44;4.15;;;3.58;;
17993;SDS011;9122;48.406;9.984;2022-08-01T06:54:29;6.38;;;3.08;;
17993;SDS011;9122;48.406;9.984;2022-08-01T06:57:14;3.13;;;2.78;;
17993;SDS011;9122;48.406;9.984;2022-08-01T07:00:00;2.90;;;2.70;;
17993;SDS011;9122;48.406;9.984;2022-08-01T07:02:52;5.93;;;3.22;;
17993;SDS011;9122;48.406;9.984;2022-08-01T07:05:39;3.20;;;2.90;;
17993;SDS011;9122;48.406;9.984;2022-08-01T07:08:23;3.45;;;2.65;;
17993;SDS011;9122;48.406;9.984;2022-08-01T07:11:08;3.00;;;2.80;;
17993;SDS011;9122;48.406;9.984;2022-08-01T07:13:53;2.70;;;2.50;;
17993;SDS011;9122;48.406;9.984;2022-08-01T07:16:38;3.00;;;2.80;;
17993;SDS011;9122;48.406;9.984;2022-08-01T07:19:23;3.30;;;3.10;;
17993;SDS011;9122;48.406;9.984;2022-08-01T07:22:07;2.95;;;2.75;;
17993;SDS011;9122;48.406;9.984;2022-08-01T07:24:52;3.05;;;2.85;;
17993;SDS011;9122;48.406;9.984;2022-08-01T07:27:37;5.50;;;3.05;;
17993;SDS011;9122;48.406;9.984;2022-08-01T07:30:21;3.25;;;3.05;;
17993;SDS011;9122;48.406;9.984;2022-08-01T07:33:06;3.42;;;3.13;;
17993;SDS011;9122;48.406;9.984;2022-08-01T07:35:50;3.30;;;2.92;;
17993;SDS011;9122;48.406;9.984;2022-08-01T07:38:35;3.17;;;2.97;;
17993;SDS011;9122;48.406;9.984;2022-08-01T07:41:20;3.03;;;2.83;;
17993;SDS011;9122;48.406;9.984;2022-08-01T07:44:04;3.33;;;3.03;;
17993;SDS011;9122;48.406;9.984;2022-08-01T07:46:49;3.10;;;2.90;;
17993;SDS011;9122;48.406;9.984;2022-08-01T07:49:34;3.75;;;3.13;;
17993;SDS011;9122;48.406;9.984;2022-08-01T07:52:19;2.65;;;2.45;;
17993;SDS011;9122;48.406;9.984;2022-08-01T07:55:04;2.75;;;2.55;;
17993;SDS011;9122;48.406;9.984;2022-08-01T07:57:49;3.03;;;2.83;;
17993;SDS011;9122;48.406;9.984;2022-08-01T08:00:34;3.67;;;3.20;;
17993;SDS011;9122;48.406;9.984;2022-08-01T08:03:19;3.17;;;2.97;;
17993;SDS011;9122;48.406;9.984;2022-08-01T08:06:03;3.20;;;3.00;;
17993;SDS011;9122;48.406;9.984;2022-08-01T08:08:48;3.05;;;2.90;;
17993;SDS011;9122;48.406;9.984;2022-08-01T08:11:33;3.30;;;2.92;;
17993;SDS011;9122;48.406;9.984;2022-08-01T08:14:17;3.25;;;3.05;;
17993;SDS011;9122;48.406;9.984;2022-08-01T08:17:02;3.28;;;2.90;;
17993;SDS011;9122;48.406;9.984;2022-08-01T08:19:47;4.40;;;2.40;;
17993;SDS011;9122;48.406;9.984;2022-08-01T08:22:32;3.88;;;2.42;;
17993;SDS011;9122;48.406;9.984;2022-08-01T08:25:17;6.63;;;2.63;;
17993;SDS011;9122;48.406;9.984;2022-08-01T08:28:02;2.83;;;2.63;;
17993;SDS011;9122;48.406;9.984;2022-08-01T08:30:47;3.25;;;3.03;;
17993;SDS011;9122;48.406;9.984;2022-08-01T08:33:32;2.92;;;2.72;;
17993;SDS011;9122;48.406;9.984;2022-08-01T08:36:16;2.55;;;2.45;;
17993;SDS011;9122;48.406;9.984;2022-08-01T08:39:01;3.40;;;2.85;;
17993;SDS011;9122;48.406;9.984;2022-08-01T08:41:47;3.28;;;2.63;;
17993;SDS011;9122;48.406;9.984;2022-08-01T08:44:32;3.47;;;2.85;;
17993;SDS011;9122;48.406;9.984;2022-08-01T08:47:16;2.35;;;2.17;;
17993;SDS011;9122;48.406;9.984;2022-08-01T08:50:02;2.53;;;2.40;;
17993;SDS011;9122;48.406;9.984;2022-08-01T08:52:47;2.50;;;2.40;;
17993;SDS011;9122;48.406;9.984;2022-08-01T08:55:33;2.60;;;2.50;;
17993;SDS011;9122;48.406;9.984;2022-08-01T08:58:18;2.75;;;2.55;;
17993;SDS011;9122;48.406;9.984;2022-08-01T09:01:07;2.80;;;2.60;;
17993;SDS011;9122;48.406;9.984;2022-08-01T09:03:52;3.13;;;2.63;;
17993;SDS011;9122;48.406;9.984;2022-08-01T09:06:37;2.58;;;2.38;;
17993;SDS011;9122;48.406;9.984;2022-08-01T09:09:23;2.28;;;2.17;;
17993;SDS011;9122;48.406;9.984;2022-08-01T09:12:07;2.20;;;2.05;;
17993;SDS011;9122;48.406;9.984;2022-08-01T09:14:52;2.38;;;2.28;;
17993;SDS011;9122;48.406;9.984;2022-08-01T09:17:40;2.00;;;1.88;;
17993;SDS011;9122;48.406;9.984;2022-08-01T09:20:25;2.95;;;1.48;;
17993;SDS011;9122;48.406;9.984;2022-08-01T09:23:19;1.73;;;1.63;;
17993;SDS011;9122;48.406;9.984;2022-08-01T09:26:16;3.28;;;1.80;;
17993;SDS011;9122;48.406;9.984;2022-08-01T09:29:22;1.92;;;1.70;;
17993;SDS011;9122;48.406;9.984;2022-08-01T09:32:12;2.00;;;1.90;;
17993;SDS011;9122;48.406;9.984;2022-08-01T09:34:56;1.55;;;1.50;;
17993;SDS011;9122;48.406;9.984;2022-08-01T09:37:41;1.67;;;1.58;;
17993;SDS011;9122;48.406;9.984;2022-08-01T09:40:26;1.50;;;1.40;;
17993;SDS011;9122;48.406;9.984;2022-08-01T09:43:37;1.63;;;1.52;;
17993;SDS011;9122;48.406;9.984;2022-08-01T09:46:22;2.03;;;1.58;;
17993;SDS011;9122;48.406;9.984;2022-08-01T09:49:07;1.60;;;1.50;;
17993;SDS011;9122;48.406;9.984;2022-08-01T09:51:51;1.38;;;1.30;;
17993;SDS011;9122;48.406;9.984;2022-08-01T09:54:36;2.15;;;2.05;;
17993;SDS011;9122;48.406;9.984;2022-08-01T09:57:21;2.20;;;2.10;;
17993;SDS011;9122;48.406;9.984;2022-08-01T10:00:05;2.67;;;2.30;;
17993;SDS011;9122;48.406;9.984;2022-08-01T10:03:18;1.60;;;1.50;;
17993;SDS011;9122;48.406;9.984;2022-08-01T10:06:20;2.15;;;1.77;;
17993;SDS011;9122;48.406;9.984;2022-08-01T10:09:05;3.42;;;1.92;;
17993;SDS011;9122;48.406;9.984;2022-08-01T10:11:50;3.30;;;2.30;;
17993;SDS011;9122;48.406;9.984;2022-08-01T10:14:34;1.50;;;1.40;;
17993;SDS011;9122;48.406;9.984;2022-08-01T10:17:24;1.65;;;1.55;;
17993;SDS011;9122;48.406;9.984;2022-08-01T10:20:09;1.65;;;1.55;;
17993;SDS011;9122;48.406;9.984;2022-08-01T10:22:54;1.63;;;1.52;;
17993;SDS011;9122;48.406;9.984;2022-08-01T10:25:41;4.20;;;1.30;;
17993;SDS011;9122;48.406;9.984;2022-08-01T10:28:29;1.98;;;1.88;;
17993;SDS011;9122;48.406;9.984;2022-08-01T10:31:14;1.83;;;1.73;;
17993;SDS011;9122;48.406;9.984;2022-08-01T10:34:02;2.95;;;1.98;;
17993;SDS011;9122;48.406;9.984;2022-08-01T10:36:47;1.52;;;1.42;;
17993;SDS011;9122;48.406;9.984;2022-08-01T10:39:32;1.63;;;1.52;;
17993;SDS011;9122;48.406;9.984;2022-08-01T10:42:17;2.17;;;2.08;;
17993;SDS011;9122;48.406;9.984;2022-08-01T10:45:02;1.90;;;1.80;;
17993;SDS011;9122;48.406;9.984;2022-08-01T10:50:37;1.90;;;1.80;;
17993;SDS011;9122;48.406;9.984;2022-08-01T10:53:28;9.25;;;8.55;;
17993;SDS011;9122;48.406;9.984;2022-08-01T10:56:13;2.42;;;2.33;;
17993;SDS011;9122;48.406;9.984;2022-08-01T10:59:01;1.70;;;1.60;;
17993;SDS011;9122;48.406;9.984;2022-08-01T11:02:00;1.77;;;1.67;;
17993;SDS011;9122;48.406;9.984;2022-08-01T11:04:51;3.13;;;1.80;;
17993;SDS011;9122;48.406;9.984;2022-08-01T11:07:43;2.13;;;2.00;;
17993;SDS011;9122;48.406;9.984;2022-08-01T11:10:40;1.73;;;1.63;;
17993;SDS011;9122;48.406;9.984;2022-08-01T11:16:55;1.63;;;1.52;;
17993;SDS011;9122;48.406;9.984;2022-08-01T11:20:15;1.83;;;1.73;;
17993;SDS011;9122;48.406;9.984;2022-08-01T11:28:34;2.00;;;1.90;;
17993;SDS011;9122;48.406;9.984;2022-08-01T11:34:04;1.50;;;1.40;;
17993;SDS011;9122;48.406;9.984;2022-08-01T11:36:49;1.35;;;1.35;;
17993;SDS011;9122;48.406;9.984;2022-08-01T11:40:26;1.63;;;1.55;;
17993;SDS011;9122;48.406;9.984;2022-08-01T11:45:56;1.80;;;1.70;;
17993;SDS011;9122;48.406;9.984;2022-08-01T11:48:40;3.60;;;2.22;;
17993;SDS011;9122;48.406;9.984;2022-08-01T11:51:25;1.73;;;1.63;;
17993;SDS011;9122;48.406;9.984;2022-08-01T11:54:11;1.98;;;1.88;;
17993;SDS011;9122;48.406;9.984;2022-08-01T11:56:57;2.55;;;1.75;;
17993;SDS011;9122;48.406;9.984;2022-08-01T11:59:43;1.60;;;1.50;;
17993;SDS011;9122;48.406;9.984;2022-08-01T12:02:33;1.80;;;1.70;;
17993;SDS011;9122;48.406;9.984;2022-08-01T12:05:18;1.88;;;1.77;;
17993;SDS011;9122;48.406;9.984;2022-08-01T12:08:04;2.08;;;1.88;;
17993;SDS011;9122;48.406;9.984;2022-08-01T12:10:49;2.10;;;1.92;;
17993;SDS011;9122;48.406;9.984;2022-08-01T12:13:41;2.30;;;2.17;;
17993;SDS011;9122;48.406;9.984;2022-08-01T12:16:27;2.58;;;1.92;;
17993;SDS011;9122;48.406;9.984;2022-08-01T12:19:16;2.25;;;2.13;;
17993;SDS011;9122;48.406;9.984;2022-08-01T12:22:12;2.22;;;2.00;;
17993;SDS011;9122;48.406;9.984;2022-08-01T12:25:11;2.38;;;2.17;;
17993;SDS011;9122;48.406;9.984;2022-08-01T12:28:04;3.30;;;2.42;;
17993;SDS011;9122;48.406;9.984;2022-08-01T12:30:50;3.28;;;2.10;;
17993;SDS011;9122;48.406;9.984;2022-08-01T12:33:34;1.80;;;1.70;;
17993;SDS011;9122;48.406;9.984;2022-08-01T12:36:28;2.00;;;1.90;;
17993;SDS011;9122;48.406;9.984;2022-08-01T12:39:13;2.13;;;2.03;;
17993;SDS011;9122;48.406;9.984;2022-08-01T12:41:58;1.83;;;1.73;;
17993;SDS011;9122;48.406;9.984;2022-08-01T12:44:44;1.80;;;1.70;;
17993;SDS011;9122;48.406;9.984;2022-08-01T12:47:31;1.80;;;1.70;;
17993;SDS011;9122;48.406;9.984;2022-08-01T12:50:16;3.35;;;2.20;;
17993;SDS011;9122;48.406;9.984;2022-08-01T12:53:04;3.72;;;2.28;;
17993;SDS011;9122;48.406;9.984;2022-08-01T12:55:50;2.05;;;1.85;;
17993;SDS011;9122;48.406;9.984;2022-08-01T12:58:36;3.65;;;2.15;;
17993;SDS011;9122;48.406;9.984;2022-08-01T13:01:24;2.15;;;2.03;;
17993;SDS011;9122;48.406;9.984;2022-08-01T13:04:10;2.60;;;2.40;;
17993;SDS011;9122;48.406;9.984;2022-08-01T13:06:55;2.22;;;2.03;;
17993;SDS011;9122;48.406;9.984;2022-08-01T13:09:48;4.47;;;2.40;;
17993;SDS011;9122;48.406;9.984;2022-08-01T13:12:34;2.55;;;2.35;;
17993;SDS011;9122;48.406;9.984;2022-08-01T13:15:26;2.97;;;2.40;;
17993;SDS011;9122;48.406;9.984;2022-08-01T13:18:25;3.65;;;2.47;;
17993;SDS011;9122;48.406;9.984;2022-08-01T13:24:09;2.20;;;2.00;;
17993;SDS011;9122;48.406;9.984;2022-08-01T13:26:57;2.53;;;2.33;;
17993;SDS011;9122;48.406;9.984;2022-08-01T13:29:43;2.45;;;2.25;;
17993;SDS011;9122;48.406;9.984;2022-08-01T13:32:29;2.88;;;1.98;;
17993;SDS011;9122;48.406;9.984;2022-08-01T13:35:14;2.67;;;2.30;;
17993;SDS011;9122;48.406;9.984;2022-08-01T13:37:58;1.80;;;1.70;;
17993;SDS011;9122;48.406;9.984;2022-08-01T13:40:42;3.75;;;2.17;;
17993;SDS011;9122;48.406;9.984;2022-08-01T13:43:26;2.25;;;2.15;;
17993;SDS011;9122;48.406;9.984;2022-08-01T13:46:11;2.47;;;2.30;;
17993;SDS011;9122;48.406;9.984;2022-08-01T13:48:55;2.20;;;2.10;;
17993;SDS011;9122;48.406;9.984;2022-08-01T13:51:40;2.38;;;2.17;;
17993;SDS011;9122;48.406;9.984;2022-08-01T13:54:24;2.80;;;2.63;;
17993;SDS011;9122;48.406;9.984;2022-08-01T13:57:09;3.88;;;2.53;;
17993;SDS011;9122;48.406;9.984;2022-08-01T13:59:54;3.00;;;2.40;;
17993;SDS011;9122;48.406;9.984;2022-08-01T14:02:39;2.63;;;2.33;;
17993;SDS011;9122;48.406;9.984;2022-08-01T14:05:23;2.95;;;2.38;;
17993;SDS011;9122;48.406;9.984;2022-08-01T14:08:08;2.97;;;2.75;;
17993;SDS011;9122;48.406;9.984;2022-08-01T14:10:53;1.85;;;1.75;;
17993;SDS011;9122;48.406;9.984;2022-08-01T14:13:40;1.92;;;1.83;;
17993;SDS011;9122;48.406;9.984;2022-08-01T14:16:25;2.33;;;2.22;;
17993;SDS011;9122;48.406;9.984;2022-08-01T14:19:09;2.03;;;1.92;;
17993;SDS011;9122;48.406;9.984;2022-08-01T14:21:54;1.63;;;1.52;;
17993;SDS011;9122;48.406;9.984;2022-08-01T14:24:40;2.47;;;2.28;;
17993;SDS011;9122;48.406;9.984;2022-08-01T14:27:24;2.13;;;1.77;;
17993;SDS011;9122;48.406;9.984;2022-08-01T14:30:09;1.60;;;1.50;;
17993;SDS011;9122;48.406;9.984;2022-08-01T14:32:55;2.13;;;1.98;;
17993;SDS011;9122;48.406;9.984;2022-08-01T14:35:40;3.90;;;2.45;;
17993;SDS011;9122;48.406;9.984;2022-08-01T14:38:25;2.25;;;2.10;;
17993;SDS011;9122;48.406;9.984;2022-08-01T14:41:10;3.58;;;1.98;;
17993;SDS011;9122;48.406;9.984;2022-08-01T14:43:54;2.75;;;2.03;;
17993;SDS011;9122;48.406;9.984;2022-08-01T14:46:39;2.55;;;2.35;;
17993;SDS011;9122;48.406;9.984;2022-08-01T14:49:25;2.63;;;2.42;;
17993;SDS011;9122;48.406;9.984;2022-08-01T14:52:09;2.20;;;2.10;;
17993;SDS011;9122;48.406;9.984;2022-08-01T14:54:54;2.20;;;2.10;;
17993;SDS011;9122;48.406;9.984;2022-08-01T14:57:39;2.63;;;2.10;;
17993;SDS011;9122;48.406;9.984;2022-08-01T15:00:24;2.58;;;2.38;;
17993;SDS011;9122;48.406;9.984;2022-08-01T15:03:09;1.90;;;1.80;;
17993;SDS011;9122;48.406;9.984;2022-08-01T15:05:54;2.13;;;1.83;;
17993;SDS011;9122;48.406;9.984;2022-08-01T15:08:38;2.13;;;2.03;;
17993;SDS011;9122;48.406;9.984;2022-08-01T15:11:23;2.90;;;2.58;;
17993;SDS011;9122;48.406;9.984;2022-08-01T15:14:07;3.17;;;2.67;;
17993;SDS011;9122;48.406;9.984;2022-08-01T15:17:11;2.35;;;2.25;;
17993;SDS011;9122;48.406;9.984;2022-08-01T15:19:56;8.05;;;2.72;;
17993;SDS011;9122;48.406;9.984;2022-08-01T15:22:45;2.97;;;2.25;;
17993;SDS011;9122;48.406;9.984;2022-08-01T15:25:31;2.42;;;2.33;;
17993;SDS011;9122;48.406;9.984;2022-08-01T15:28:16;2.47;;;2.05;;
17993;SDS011;9122;48.406;9.984;2022-08-01T15:31:00;2.17;;;1.90;;
17993;SDS011;9122;48.406;9.984;2022-08-01T15:33:45;2.80;;;2.60;;
17993;SDS011;9122;48.406;9.984;2022-08-01T15:36:29;2.97;;;2.63;;
17993;SDS011;9122;48.406;9.984;2022-08-01T15:39:14;2.35;;;2.15;;
17993;SDS011;9122;48.406;9.984;2022-08-01T15:41:59;2.72;;;2.53;;
17993;SDS011;9122;48.406;9.984;2022-08-01T15:44:48;5.00;;;2.13;;
17993;SDS011;9122;48.406;9.984;2022-08-01T15:47:33;2.30;;;2.13;;
17993;SDS011;9122;48.406;9.984;2022-08-01T15:50:17;2.28;;;2.08;;
17993;SDS011;9122;48.406;9.984;2022-08-01T15:53:02;2.67;;;2.47;;
17993;SDS011;9122;48.406;9.984;2022-08-01T15:55:47;2.72;;;2.10;;
17993;SDS011;9122;48.406;9.984;2022-08-01T15:58:31;3.15;;;2.78;;
17993;SDS011;9122;48.406;9.984;2022-08-01T16:01:16;2.40;;;2.30;;
17993;SDS011;9122;48.406;9.984;2022-08-01T16:04:01;2.42;;;2.22;;
17993;SDS011;9122;48.406;9.984;2022-08-01T16:06:45;2.53;;;1.80;;
17993;SDS011;9122;48.406;9.984;2022-08-01T16:09:30;3.55;;;2.85;;
17993;SDS011;9122;48.406;9.984;2022-08-01T16:12:15;4.00;;;2.40;;
17993;SDS011;9122;48.406;9.984;2022-08-01T16:15:00;2.78;;;2.45;;
17993;SDS011;9122;48.406;9.984;2022-08-01T16:17:44;2.63;;;2.42;;
17993;SDS011;9122;48.406;9.984;2022-08-01T16:20:29;2.75;;;2.53;;
17993;SDS011;9122;48.406;9.984;2022-08-01T16:23:13;3.25;;;3.05;;
17993;SDS011;9122;48.406;9.984;2022-08-01T16:25:58;2.83;;;2.63;;
17993;SDS011;9122;48.406;9.984;2022-08-01T16:28:43;2.65;;;2.45;;
17993;SDS011;9122;48.406;9.984;2022-08-01T16:31:31;2.10;;;2.00;;
17993;SDS011;9122;48.406;9.984;2022-08-01T16:34:16;6.75;;;2.63;;
17993;SDS011;9122;48.406;9.984;2022-08-01T16:37:00;3.78;;;2.40;;
17993;SDS011;9122;48.406;9.984;2022-08-01T16:39:45;2.22;;;2.08;;
17993;SDS011;9122;48.406;9.984;2022-08-01T16:42:29;2.35;;;2.13;;
17993;SDS011;9122;48.406;9.984;2022-08-01T16:45:14;2.25;;;2.15;;
17993;SDS011;9122;48.406;9.984;2022-08-01T16:48:00;3.75;;;1.98;;
17993;SDS011;9122;48.406;9.984;2022-08-01T16:50:46;2.65;;;2.45;;
17993;SDS011;9122;48.406;9.984;2022-08-01T16:53:35;2.42;;;2.22;;
17993;SDS011;9122;48.406;9.984;2022-08-01T16:56:20;3.60;;;2.42;;
17993;SDS011;9122;48.406;9.984;2022-08-01T16:59:04;2.60;;;2.40;;
17993;SDS011;9122;48.406;9.984;2022-08-01T17:01:49;2.83;;;2.38;;
17993;SDS011;9122;48.406;9.984;2022-08-01T17:04:34;3.10;;;2.40;;
17993;SDS011;9122;48.406;9.984;2022-08-01T17:07:18;2.75;;;2.55;;
17993;SDS011;9122;48.406;9.984;2022-08-01T17:10:04;2.90;;;2.67;;
17993;SDS011;9122;48.406;9.984;2022-08-01T17:12:49;3.20;;;2.90;;
17993;SDS011;9122;48.406;9.984;2022-08-01T17:15:34;2.90;;;2.70;;
17993;SDS011;9122;48.406;9.984;2022-08-01T17:18:19;2.65;;;2.30;;
17993;SDS011;9122;48.406;9.984;2022-08-01T17:21:04;2.15;;;2.05;;
17993;SDS011;9122;48.406;9.984;2022-08-01T17:23:48;3.75;;;2.70;;
17993;SDS011;9122;48.406;9.984;2022-08-01T17:26:33;3.30;;;3.10;;